Time;durP1;ratioP1;P1;durP2;ratioP2;P2;SDS_P1;SDS_P2;PMS_P1;PMS_P2;Temp;Humidity;BMP_temperature;BMP_pressure;BME280_temperature;BME280_humidity;BME280_pressure;Samples;Min_cycle;Max_cycle;Signal;HPM_P1;HPM_P2
2022/09/23 00:01:22;;;;;;;0.00;0.00;;;9.20;99.90;;;;;;5015158;28;20251;-89
2022/09/23 00:03:50;;;;;;;0.00;0.00;;;9.20;99.90;;;;;;5000567;28;20215;-89
2022/09/23 00:06:21;;;;;;;0.00;0.00;;;9.20;99.90;;;;;;4998221;28;20220;-89
2022/09/23 00:08:50;;;;;;;0.00;0.00;;;9.20;99.90;;;;;;4998340;28;20219;-88
2022/09/23 00:11:20;;;;;;;0.00;0.00;;;9.20;99.90;;;;;;4998512;28;20224;-89
2022/09/23 00:13:50;;;;;;;0.00;0.00;;;9.20;99.90;;;;;;4999071;28;20203;-89
2022/09/23 00:16:20;;;;;;;0.00;0.00;;;9.10;99.90;;;;;;5002082;28;20254;-89
2022/09/23 00:18:49;;;;;;;0.00;0.00;;;9.10;99.90;;;;;;5001075;28;20206;-88
2022/09/23 00:21:19;;;;;;;0.00;0.00;;;9.10;99.90;;;;;;5000811;28;20242;-90
2022/09/23 00:23:47;;;;;;;0.00;0.00;;;9.10;99.90;;;;;;5001262;28;20266;-89
2022/09/23 00:26:17;;;;;;;0.00;0.00;;;9.10;99.90;;;;;;5000761;28;20219;-89
2022/09/23 00:28:45;;;;;;;0.00;0.00;;;9.00;99.90;;;;;;5000472;28;20208;-90
2022/09/23 00:31:15;;;;;;;0.00;0.00;;;9.00;99.90;;;;;;5002099;28;20220;-89
2022/09/23 00:33:43;;;;;;;0.00;0.00;;;9.00;99.90;;;;;;5002740;28;20298;-90
2022/09/23 00:36:15;;;;;;;0.00;0.00;;;9.00;99.90;;;;;;5001648;28;20199;-89
2022/09/23 00:38:45;;;;;;;0.00;0.00;;;9.00;99.90;;;;;;5001407;28;20208;-90
2022/09/23 00:41:14;;;;;;;0.00;0.00;;;9.00;99.90;;;;;;5001638;28;20232;-88
2022/09/23 00:43:47;;;;;;;0.00;0.00;;;9.00;99.90;;;;;;5001861;28;20678;-90
2022/09/23 00:46:20;;;;;;;0.00;0.00;;;8.90;99.90;;;;;;5001578;28;20232;-89
2022/09/23 00:48:52;;;;;;;0.00;0.00;;;9.00;99.90;;;;;;5001421;28;20217;-90
2022/09/23 00:51:24;;;;;;;0.00;0.00;;;8.90;99.90;;;;;;5001852;28;20223;-89
2022/09/23 00:53:53;;;;;;;0.00;0.00;;;8.90;99.90;;;;;;5002482;28;20252;-90
2022/09/23 00:56:23;;;;;;;0.00;0.00;;;8.90;99.90;;;;;;5000577;28;20227;-90
2022/09/23 00:58:52;;;;;;;0.00;0.00;;;8.90;99.90;;;;;;5000581;28;20203;-90
2022/09/23 01:01:21;;;;;;;0.00;0.00;;;8.90;99.90;;;;;;5004054;28;20218;-90
2022/09/23 01:03:50;;;;;;;0.00;0.00;;;8.80;99.90;;;;;;5005639;28;20203;-88
2022/09/23 01:06:18;;;;;;;0.00;0.00;;;8.80;99.90;;;;;;5000465;28;20266;-89
2022/09/23 01:08:47;;;;;;;0.00;0.00;;;8.80;99.90;;;;;;5000818;28;20214;-90
2022/09/23 01:11:30;;;;;;;0.00;0.00;;;8.80;99.90;;;;;;5000920;28;20678;-90
2022/09/23 01:14:07;;;;;;;0.00;0.00;;;8.80;99.90;;;;;;5001431;28;20203;-90
2022/09/23 01:16:42;;;;;;;0.00;0.00;;;8.80;99.90;;;;;;5001917;28;20195;-90
2022/09/23 01:19:28;;;;;;;0.00;0.00;;;8.80;99.90;;;;;;5001393;28;20324;-90
2022/09/23 01:22:07;;;;;;;0.00;0.00;;;8.80;99.90;;;;;;5002781;28;20222;-90
2022/09/23 01:25:00;;;;;;;0.00;0.00;;;8.80;99.90;;;;;;5002118;28;20212;-89
2022/09/23 01:27:45;;;;;;;0.00;0.00;;;8.70;99.90;;;;;;5001550;28;20278;-90
2022/09/23 01:30:34;;;;;;;0.00;0.00;;;8.80;99.90;;;;;;5001342;28;20302;-90
2022/09/23 01:33:12;;;;;;;0.00;0.00;;;8.80;99.90;;;;;;5000988;28;20206;-90
2022/09/23 01:36:06;;;;;;;0.00;0.00;;;8.80;99.90;;;;;;5000627;28;20214;-90
2022/09/23 01:38:41;;;;;;;0.00;0.00;;;8.80;99.90;;;;;;5000789;28;20207;-90
2022/09/23 01:41:27;;;;;;;0.00;0.00;;;8.80;99.90;;;;;;5000940;28;20223;-90
2022/09/23 01:44:03;;;;;;;0.00;0.00;;;8.80;99.90;;;;;;5001386;28;20204;-88
2022/09/23 01:46:38;;;;;;;0.00;0.00;;;8.80;99.90;;;;;;5000486;28;20566;-90
2022/09/23 01:49:11;;;;;;;0.00;0.00;;;8.80;99.90;;;;;;5000971;28;20658;-90
2022/09/23 01:51:45;;;;;;;0.00;0.00;;;8.80;99.90;;;;;;5000564;28;20235;-90
2022/09/23 01:54:18;;;;;;;0.00;0.00;;;8.70;99.90;;;;;;5000989;28;20223;-90
2022/09/23 01:56:51;;;;;;;0.00;0.00;;;8.70;99.90;;;;;;5001236;28;20199;-90
2022/09/23 01:59:25;;;;;;;0.00;0.00;;;8.70;99.90;;;;;;5005778;28;20262;-90
2022/09/23 02:01:59;;;;;;;0.00;0.00;;;8.60;99.90;;;;;;5007134;28;20208;-89
2022/09/23 02:04:31;;;;;;;0.00;0.00;;;8.70;99.90;;;;;;5012221;28;20207;-90
2022/09/23 02:07:02;;;;;;;0.00;0.00;;;8.60;99.90;;;;;;5009517;28;20219;-89
2022/09/23 02:09:38;;;;;;;0.00;0.00;;;8.60;99.90;;;;;;5007897;28;20211;-90
2022/09/23 02:12:11;;;;;;;0.00;0.00;;;8.60;99.90;;;;;;5008198;28;20211;-88
2022/09/23 02:14:45;;;;;;;0.00;0.00;;;8.60;99.90;;;;;;5006701;28;20593;-89
2022/09/23 02:20:01;;;;;;;0.00;0.00;;;8.60;99.90;;;;;;5278345;22;20854;-90
2022/09/23 02:22:34;;;;;;;0.00;0.00;;;8.60;99.90;;;;;;5042306;28;20240;-90
2022/09/23 02:25:03;;;;;;;0.00;0.00;;;8.50;99.90;;;;;;5042560;28;20206;-90
2022/09/23 02:27:37;;;;;;;0.00;0.00;;;8.60;99.90;;;;;;5040787;28;20221;-90
2022/09/23 02:30:09;;;;;;;0.00;0.00;;;8.60;99.90;;;;;;5040231;28;20226;-90
2022/09/23 02:32:48;;;;;;;0.00;0.00;;;8.60;99.90;;;;;;5040360;28;20202;-90
2022/09/23 02:35:24;;;;;;;0.00;0.00;;;8.60;99.90;;;;;;5041172;28;20206;-90
2022/09/23 02:38:01;;;;;;;0.00;0.00;;;8.60;99.90;;;;;;5040938;28;20202;-90
2022/09/23 02:40:37;;;;;;;0.00;0.00;;;8.60;99.90;;;;;;5042154;28;20291;-90
2022/09/23 02:43:09;;;;;;;0.00;0.00;;;8.60;99.90;;;;;;5042133;28;20569;-90
2022/09/23 02:45:37;;;;;;;0.00;0.00;;;8.60;99.90;;;;;;5041769;28;20332;-90
2022/09/23 02:48:10;;;;;;;0.00;0.00;;;8.50;99.90;;;;;;5042411;28;20218;-90
2022/09/23 02:50:40;;;;;;;0.00;0.00;;;8.50;99.90;;;;;;5045636;28;20226;-90
2022/09/23 02:53:08;;;;;;;0.00;0.00;;;8.50;99.90;;;;;;5056981;28;20182;-90
2022/09/23 02:55:36;;;;;;;0.00;0.00;;;8.50;99.90;;;;;;5040755;28;20605;-90
2022/09/23 02:58:05;;;;;;;0.00;0.00;;;8.50;99.90;;;;;;5039892;28;20272;-90
2022/09/23 03:00:42;;;;;;;0.00;0.00;;;8.50;99.90;;;;;;5037916;28;20230;-90
2022/09/23 03:03:22;;;;;;;0.00;0.00;;;8.40;99.90;;;;;;5037354;28;20229;-90
2022/09/23 03:05:56;;;;;;;0.00;0.00;;;8.40;99.90;;;;;;5036241;28;20179;-90
2022/09/23 03:08:41;;;;;;;0.00;0.00;;;8.40;99.90;;;;;;5037225;28;20222;-89
2022/09/23 03:11:12;;;;;;;0.00;0.00;;;8.40;99.90;;;;;;5042551;28;20685;-89
2022/09/23 03:14:06;;;;;;;0.00;0.00;;;8.40;99.90;;;;;;5039827;28;20187;-88
2022/09/23 03:16:39;;;;;;;0.00;0.00;;;8.40;99.90;;;;;;5039230;28;20221;-88
2022/09/23 03:19:19;;;;;;;0.00;0.00;;;8.50;99.90;;;;;;5037793;28;20568;-88
2022/09/23 03:21:55;;;;;;;0.00;0.00;;;8.50;99.90;;;;;;5046015;28;20207;-90
2022/09/23 03:24:24;;;;;;;0.00;0.00;;;8.50;99.90;;;;;;5043510;28;20228;-89
2022/09/23 03:26:54;;;;;;;0.00;0.00;;;8.60;99.90;;;;;;5042964;28;20202;-90
2022/09/23 03:29:23;;;;;;;0.00;0.00;;;8.60;99.90;;;;;;5041894;28;20287;-92
2022/09/23 03:31:52;;;;;;;0.00;0.00;;;8.80;99.90;;;;;;5050830;28;20646;-91
2022/09/23 03:34:26;;;;;;;0.00;0.00;;;8.80;99.90;;;;;;5047200;28;20202;-91
2022/09/23 03:37:00;;;;;;;0.00;0.00;;;8.90;99.90;;;;;;5043698;28;20601;-90
2022/09/23 03:39:36;;;;;;;0.00;0.00;;;9.00;99.90;;;;;;5045659;28;20191;-90
2022/09/23 03:42:14;;;;;;;0.00;0.00;;;9.10;99.90;;;;;;5046011;28;20236;-89
2022/09/23 03:44:43;;;;;;;0.00;0.00;;;9.10;99.90;;;;;;5047272;28;20245;-89
2022/09/23 03:47:13;;;;;;;0.00;0.00;;;9.20;99.90;;;;;;5046324;28;20202;-90
2022/09/23 03:49:44;;;;;;;0.00;0.00;;;9.30;99.90;;;;;;5048697;28;20634;-91
2022/09/23 03:52:13;;;;;;;0.00;0.00;;;9.30;99.90;;;;;;5049498;28;20202;-89
2022/09/23 03:54:41;;;;;;;0.00;0.00;;;9.40;99.90;;;;;;5050998;28;20206;-88
2022/09/23 03:57:10;;;;;;;0.00;0.00;;;9.40;99.90;;;;;;5045668;28;20233;-88
2022/09/23 03:59:38;;;;;;;0.00;0.00;;;9.50;99.90;;;;;;5045219;28;20201;-88
2022/09/23 04:02:07;;;;;;;0.00;0.00;;;9.50;99.90;;;;;;5046139;28;20564;-90
2022/09/23 04:04:37;;;;;;;0.00;0.00;;;9.60;99.90;;;;;;5046116;28;20198;-89
2022/09/23 04:07:05;;;;;;;0.00;0.00;;;9.70;99.90;;;;;;5046659;28;20264;-88
2022/09/23 04:09:35;;;;;;;0.00;0.00;;;9.70;99.90;;;;;;5046598;28;20637;-90
2022/09/23 04:12:13;;;;;;;0.00;0.00;;;9.70;99.90;;;;;;5045142;28;20210;-90
2022/09/23 04:14:41;;;;;;;0.00;0.00;;;9.70;99.90;;;;;;5048844;28;20210;-89
2022/09/23 04:17:12;;;;;;;0.00;0.00;;;9.70;99.90;;;;;;5046038;28;20570;-90
2022/09/23 04:19:40;;;;;;;0.00;0.00;;;9.70;99.90;;;;;;5046655;28;20210;-90
2022/09/23 04:22:09;;;;;;;0.00;0.00;;;9.70;99.90;;;;;;5044928;28;20210;-90
2022/09/23 04:24:38;;;;;;;0.00;0.00;;;9.70;99.90;;;;;;5045209;28;20630;-91
2022/09/23 04:27:09;;;;;;;0.00;0.00;;;9.80;99.90;;;;;;5043098;28;20225;-89
2022/09/23 04:29:40;;;;;;;0.00;0.00;;;9.80;99.90;;;;;;5041284;28;20700;-89
2022/09/23 04:32:08;;;;;;;0.00;0.00;;;9.80;99.90;;;;;;5043634;28;20205;-89
2022/09/23 04:34:35;;;;;;;0.00;0.00;;;9.90;99.90;;;;;;5042423;28;20626;-89
2022/09/23 04:37:03;;;;;;;0.00;0.00;;;9.90;99.90;;;;;;5042811;28;20210;-88
2022/09/23 04:39:31;;;;;;;0.00;0.00;;;9.90;99.90;;;;;;5041993;28;20553;-89
2022/09/23 04:42:02;;;;;;;0.00;0.00;;;9.90;99.90;;;;;;5042963;28;20214;-90
2022/09/23 04:44:30;;;;;;;0.00;0.00;;;9.90;99.90;;;;;;5042762;28;20213;-90
2022/09/23 04:46:58;;;;;;;0.00;0.00;;;9.90;99.90;;;;;;5043230;28;20221;-89
2022/09/23 04:49:26;;;;;;;0.00;0.00;;;9.90;99.90;;;;;;5042475;28;20225;-90
2022/09/23 04:51:54;;;;;;;0.00;0.00;;;10.00;99.90;;;;;;5042771;28;20213;-91
2022/09/23 04:54:21;;;;;;;0.00;0.00;;;10.00;99.90;;;;;;5048129;28;20456;-90
2022/09/23 04:56:49;;;;;;;0.00;0.00;;;10.10;99.90;;;;;;5055944;28;20206;-89
2022/09/23 04:59:19;;;;;;;0.00;0.00;;;10.10;99.90;;;;;;5044575;28;20256;-90
2022/09/23 05:01:46;;;;;;;0.00;0.00;;;10.10;99.90;;;;;;5041645;28;20226;-89
2022/09/23 05:04:14;;;;;;;0.00;0.00;;;10.10;99.90;;;;;;5040249;28;20229;-89
2022/09/23 05:06:43;;;;;;;0.00;0.00;;;10.10;99.90;;;;;;5040728;28;20209;-88
2022/09/23 05:09:16;;;;;;;0.00;0.00;;;10.10;99.90;;;;;;5041680;28;20265;-88
2022/09/23 05:11:44;;;;;;;0.00;0.00;;;10.10;99.90;;;;;;5041265;28;20232;-88
2022/09/23 05:14:12;;;;;;;0.00;0.00;;;10.20;99.90;;;;;;5040865;28;20206;-88
2022/09/23 05:16:41;;;;;;;0.00;0.00;;;10.20;99.90;;;;;;5041498;28;20596;-93
2022/09/23 05:19:10;;;;;;;0.00;0.00;;;10.20;99.90;;;;;;5040780;28;20225;-91
2022/09/23 05:22:09;;;;;;;0.00;0.00;;;10.20;99.90;;;;;;5040088;28;20226;-90
2022/09/23 05:24:37;;;;;;;0.00;0.00;;;10.20;99.90;;;;;;5038374;28;20210;-90
2022/09/23 05:27:06;;;;;;;0.00;0.00;;;10.20;99.90;;;;;;5050633;28;20202;-90
2022/09/23 05:29:35;;;;;;;0.00;0.00;;;10.20;99.90;;;;;;5033647;28;20478;-89
2022/09/23 05:32:04;;;;;;;0.00;0.00;;;10.20;99.90;;;;;;5023889;28;20195;-90
2022/09/23 05:34:32;;;;;;;0.00;0.00;;;10.20;99.90;;;;;;5032335;28;20205;-90
2022/09/23 05:37:00;;;;;;;0.00;0.00;;;10.30;99.90;;;;;;5042838;28;20205;-90
2022/09/23 05:39:28;;;;;;;0.00;0.00;;;10.20;99.90;;;;;;5042215;28;20248;-90
2022/09/23 05:41:56;;;;;;;0.00;0.00;;;10.30;99.90;;;;;;5042018;28;20437;-89
2022/09/23 05:44:24;;;;;;;0.00;0.00;;;10.30;99.90;;;;;;5042480;28;20202;-90
2022/09/23 05:46:52;;;;;;;0.00;0.00;;;10.30;99.90;;;;;;5042749;28;20468;-90
2022/09/23 05:49:21;;;;;;;0.00;0.00;;;10.30;99.90;;;;;;5042515;28;20234;-90
2022/09/23 05:52:09;;;;;;;0.00;0.00;;;10.30;99.90;;;;;;5021244;28;20984;-89
2022/09/23 05:54:37;;;;;;;0.00;0.00;;;10.30;99.90;;;;;;5024972;28;20204;-89
2022/09/23 05:57:05;;;;;;;0.00;0.00;;;10.30;99.90;;;;;;5043704;28;20252;-89
2022/09/23 05:59:33;;;;;;;0.00;0.00;;;10.30;99.90;;;;;;5053453;28;20186;-89
2022/09/23 06:02:01;;;;;;;0.00;0.00;;;10.40;99.90;;;;;;5044175;28;20258;-90
2022/09/23 06:04:31;;;;;;;0.00;0.00;;;10.40;99.90;;;;;;5042659;28;20210;-90
2022/09/23 06:06:59;;;;;;;0.00;0.00;;;10.40;99.90;;;;;;5043107;28;20210;-90
2022/09/23 06:09:30;;;;;;;0.00;0.00;;;10.40;99.90;;;;;;5042086;28;20461;-88
2022/09/23 06:12:03;;;;;;;0.00;0.00;;;10.50;99.90;;;;;;5040863;28;20199;-89
2022/09/23 06:14:31;;;;;;;0.00;0.00;;;10.50;99.90;;;;;;5032041;28;20512;-88
2022/09/23 06:16:59;;;;;;;0.00;0.00;;;10.50;99.90;;;;;;5040052;28;20210;-88
2022/09/23 06:19:27;;;;;;;0.00;0.00;;;10.50;99.90;;;;;;5039693;28;20225;-89
2022/09/23 06:21:56;;;;;;;0.00;0.00;;;10.60;99.90;;;;;;5039175;28;20499;-88
2022/09/23 06:24:24;;;;;;;0.00;0.00;;;10.60;99.90;;;;;;5039249;28;20204;-89
2022/09/23 06:27:01;;;;;;;0.00;0.00;;;10.60;99.90;;;;;;5038608;28;20217;-89
2022/09/23 06:29:32;;;;;;;0.00;0.00;;;10.60;99.90;;;;;;5038035;28;20481;-88
2022/09/23 06:31:59;;;;;;;0.00;0.00;;;10.60;99.90;;;;;;5037953;28;20206;-88
2022/09/23 06:34:27;;;;;;;0.00;0.00;;;10.60;99.90;;;;;;5042004;28;20194;-88
2022/09/23 06:36:57;;;;;;;0.00;0.00;;;10.60;99.90;;;;;;5037907;28;20206;-88
2022/09/23 06:39:29;;;;;;;0.00;0.00;;;10.50;99.90;;;;;;5037504;28;20627;-87
2022/09/23 06:41:57;;;;;;;0.00;0.00;;;10.50;99.90;;;;;;5037940;28;20860;-90
2022/09/23 06:44:28;;;;;;;0.00;0.00;;;10.50;99.90;;;;;;5038539;28;20209;-88
2022/09/23 06:46:56;;;;;;;0.00;0.00;;;10.50;99.90;;;;;;5038214;28;20218;-89
2022/09/23 06:49:25;;;;;;;0.00;0.00;;;10.40;99.90;;;;;;5038242;28;20609;-89
2022/09/23 06:51:54;;;;;;;0.00;0.00;;;10.50;99.90;;;;;;5038135;28;20199;-89
2022/09/23 06:54:27;;;;;;;0.00;0.00;;;10.50;99.90;;;;;;5037790;28;20206;-88
2022/09/23 06:56:55;;;;;;;0.00;0.00;;;10.50;99.90;;;;;;5027086;28;20217;-88
2022/09/23 06:59:23;;;;;;;0.00;0.00;;;10.50;99.90;;;;;;5037025;28;20272;-88
2022/09/23 07:01:51;;;;;;;0.00;0.00;;;10.40;99.90;;;;;;5048770;28;20210;-89
2022/09/23 07:04:19;;;;;;;0.00;0.00;;;10.40;99.90;;;;;;5038624;28;20203;-87
2022/09/23 07:06:47;;;;;;;0.00;0.00;;;10.50;99.90;;;;;;5038125;28;20202;-87
2022/09/23 07:09:16;;;;;;;0.00;0.00;;;10.50;99.90;;;;;;5039419;28;21054;-89
2022/09/23 07:11:47;;;;;;;0.00;0.00;;;10.50;99.90;;;;;;5038890;28;20472;-90
2022/09/23 07:14:15;;;;;;;0.00;0.00;;;10.60;99.90;;;;;;5039954;28;20932;-88
2022/09/23 07:16:43;;;;;;;0.00;0.00;;;10.60;99.90;;;;;;5040034;28;20217;-88
2022/09/23 07:19:12;;;;;;;0.00;0.00;;;10.70;99.90;;;;;;5037036;28;20229;-89
2022/09/23 07:21:40;;;;;;;0.00;0.00;;;10.80;99.90;;;;;;5037832;28;21035;-89
2022/09/23 07:24:08;;;;;;;0.00;0.00;;;10.90;99.90;;;;;;5037586;28;20440;-89
2022/09/23 07:26:36;;;;;;;0.00;0.00;;;11.10;99.90;;;;;;5037064;28;20449;-90
2022/09/23 07:29:15;;;;;;;0.00;0.00;;;11.30;99.90;;;;;;5037329;28;20504;-90
2022/09/23 07:31:43;;;;;;;0.00;0.00;;;11.40;99.90;;;;;;5037917;28;20480;-90
2022/09/23 07:34:12;;;;;;;0.00;0.00;;;11.50;99.90;;;;;;5038896;28;20468;-90
2022/09/23 07:36:40;;;;;;;0.00;0.00;;;11.60;99.90;;;;;;5027883;28;20255;-90
2022/09/23 07:39:09;;;;;;;0.00;0.00;;;11.80;99.90;;;;;;5033615;28;20960;-91
2022/09/23 07:41:37;;;;;;;0.00;0.00;;;11.90;99.90;;;;;;5039635;28;20483;-91
2022/09/23 07:44:05;;;;;;;0.00;0.00;;;11.90;99.90;;;;;;5026914;28;20504;-90
2022/09/23 07:46:36;;;;;;;0.00;0.00;;;12.00;99.90;;;;;;5016934;28;20496;-91
2022/09/23 07:49:05;;;;;;;0.00;0.00;;;12.10;99.90;;;;;;5015918;28;20454;-92
2022/09/23 07:51:35;;;;;;;0.00;0.00;;;12.20;99.90;;;;;;5020945;28;20521;-90
2022/09/23 07:54:06;;;;;;;0.00;0.00;;;12.30;99.90;;;;;;5023030;28;20442;-91
2022/09/23 07:56:34;;;;;;;0.00;0.00;;;12.50;99.90;;;;;;5025797;28;20422;-91
2022/09/23 07:59:03;;;;;;;0.00;0.00;;;12.60;99.90;;;;;;5029940;28;20553;-91
2022/09/23 08:01:33;;;;;;;0.00;0.00;;;12.70;99.90;;;;;;5025089;28;20496;-91
2022/09/23 08:04:05;;;;;;;0.00;0.00;;;12.80;99.90;;;;;;5032905;28;20454;-90
2022/09/23 08:06:33;;;;;;;0.00;0.00;;;13.00;99.90;;;;;;5024007;28;20442;-90
2022/09/23 08:09:01;;;;;;;0.00;0.00;;;13.10;99.90;;;;;;5022085;28;20959;-90
2022/09/23 08:11:34;;;;;;;0.00;0.00;;;13.30;99.90;;;;;;5022260;28;20484;-91
2022/09/23 08:14:08;;;;;;;0.00;0.00;;;13.30;99.90;;;;;;5021864;28;20485;-91
2022/09/23 08:16:39;;;;;;;0.00;0.00;;;13.50;99.90;;;;;;5022334;28;20450;-90
2022/09/23 08:19:14;;;;;;;0.00;0.00;;;13.60;99.90;;;;;;5021947;28;20477;-91
2022/09/23 08:21:42;;;;;;;0.00;0.00;;;13.60;99.90;;;;;;5021573;28;20473;-91
2022/09/23 08:24:14;;;;;;;0.00;0.00;;;13.50;99.90;;;;;;5021633;28;20465;-91
2022/09/23 08:26:43;;;;;;;0.00;0.00;;;13.60;99.90;;;;;;5023038;28;20453;-91
2022/09/23 08:29:12;;;;;;;0.00;0.00;;;13.60;99.90;;;;;;5021823;28;20473;-91
2022/09/23 08:31:40;;;;;;;0.00;0.00;;;13.70;99.90;;;;;;5021579;28;20489;-90
2022/09/23 08:34:10;;;;;;;0.00;0.00;;;13.70;99.90;;;;;;5021113;28;20453;-90
2022/09/23 08:36:38;;;;;;;0.00;0.00;;;13.70;99.90;;;;;;5024237;28;20943;-90
2022/09/23 08:39:06;;;;;;;0.00;0.00;;;13.80;99.90;;;;;;5025429;28;20442;-90
2022/09/23 08:41:39;;;;;;;0.00;0.00;;;13.80;99.90;;;;;;5025668;28;20980;-90
2022/09/23 08:44:16;;;;;;;0.00;0.00;;;13.80;99.90;;;;;;5025433;28;20430;-90
2022/09/23 08:46:49;;;;;;;0.00;0.00;;;13.80;99.90;;;;;;5025293;28;20458;-90
2022/09/23 08:49:24;;;;;;;0.00;0.00;;;13.90;99.90;;;;;;5025053;28;20469;-91
2022/09/23 08:51:54;;;;;;;0.00;0.00;;;13.90;99.90;;;;;;5026060;28;20483;-89
2022/09/23 08:54:27;;;;;;;0.00;0.00;;;14.00;99.90;;;;;;5035715;28;20446;-91
2022/09/23 08:56:58;;;;;;;0.00;0.00;;;14.00;99.90;;;;;;5040722;28;20437;-90
2022/09/23 08:59:35;;;;;;;0.00;0.00;;;14.10;99.90;;;;;;5029429;28;20936;-90
2022/09/23 09:02:11;;;;;;;0.00;0.00;;;14.10;99.90;;;;;;5024763;28;20560;-89
2022/09/23 09:04:44;;;;;;;0.00;0.00;;;14.20;99.90;;;;;;5027056;28;20405;-91
2022/09/23 09:07:18;;;;;;;0.00;0.00;;;14.30;99.90;;;;;;5035741;28;20426;-90
2022/09/23 09:10:15;;;;;;;0.00;0.00;;;14.40;99.90;;;;;;5022617;28;20466;-89
2022/09/23 09:12:46;;;;;;;0.00;0.00;;;14.50;99.90;;;;;;5023629;28;20474;-90
2022/09/23 09:15:20;;;;;;;0.00;0.00;;;14.60;99.90;;;;;;5022669;28;20851;-89
2022/09/23 09:18:00;;;;;;;0.00;0.00;;;14.70;99.90;;;;;;5022838;28;20460;-90
2022/09/23 09:20:48;;;;;;;0.00;0.00;;;14.80;99.90;;;;;;5022765;28;20466;-89
2022/09/23 09:23:40;;;;;;;0.00;0.00;;;14.90;99.90;;;;;;5023600;28;20462;-89
2022/09/23 09:26:22;;;;;;;0.00;0.00;;;14.90;99.90;;;;;;5024229;28;20457;-89
2022/09/23 09:28:55;;;;;;;0.00;0.00;;;15.00;99.90;;;;;;5026753;28;20537;-88
2022/09/23 09:31:45;;;;;;;0.00;0.00;;;15.10;99.90;;;;;;5024239;28;20486;-89
2022/09/23 09:34:24;;;;;;;0.00;0.00;;;15.10;99.90;;;;;;5032539;28;20995;-91
2022/09/23 09:37:04;;;;;;;0.00;0.00;;;15.10;99.90;;;;;;5045593;28;20452;-90
2022/09/23 09:39:35;;;;;;;0.00;0.00;;;15.20;99.90;;;;;;5043237;28;20464;-90
2022/09/23 09:42:05;;;;;;;0.00;0.00;;;15.30;99.90;;;;;;5042992;28;20452;-89
2022/09/23 09:44:43;;;;;;;0.00;0.00;;;15.40;99.90;;;;;;5044095;28;20469;-89
2022/09/23 09:47:27;;;;;;;0.00;0.00;;;15.50;99.90;;;;;;5037781;28;20453;-89
2022/09/23 09:49:59;;;;;;;0.00;0.00;;;15.60;99.90;;;;;;5040729;28;20975;-87
2022/09/23 09:52:30;;;;;;;0.00;0.00;;;15.60;99.90;;;;;;5040683;28;20488;-88
2022/09/23 09:55:23;;;;;;;0.00;0.00;;;15.70;99.90;;;;;;5031451;28;20981;-88
2022/09/23 09:57:55;;;;;;;0.00;0.00;;;15.80;99.90;;;;;;5020979;28;20450;-88
2022/09/23 10:00:44;;;;;;;0.00;0.00;;;16.00;99.90;;;;;;5020565;28;20470;-89
2022/09/23 10:03:31;;;;;;;0.00;0.00;;;16.10;99.90;;;;;;5034112;28;20445;-87
2022/09/23 10:05:59;;;;;;;0.00;0.00;;;16.30;99.90;;;;;;5040544;28;20465;-90
2022/09/23 10:08:32;;;;;;;0.00;0.00;;;16.50;99.90;;;;;;5043364;28;20449;-89
2022/09/23 10:11:02;;;;;;;0.00;0.00;;;16.70;99.90;;;;;;5045779;28;20453;-87
2022/09/23 10:13:31;;;;;;;0.00;0.00;;;16.80;99.90;;;;;;5040521;28;20429;-90
2022/09/23 10:16:02;;;;;;;0.00;0.00;;;16.90;99.90;;;;;;5042667;28;20487;-90
2022/09/23 10:18:34;;;;;;;0.00;0.00;;;17.00;99.90;;;;;;5042507;28;20461;-90
2022/09/23 10:21:07;;;;;;;0.00;0.00;;;17.20;99.90;;;;;;5041036;28;20457;-89
2022/09/23 10:23:40;;;;;;;0.00;0.00;;;17.30;99.90;;;;;;5041422;28;20453;-89
2022/09/23 10:26:09;;;;;;;0.00;0.00;;;17.30;99.90;;;;;;5039317;28;20446;-89
2022/09/23 10:28:45;;;;;;;0.00;0.00;;;17.40;99.90;;;;;;5033674;28;20439;-90
2022/09/23 10:31:16;;;;;;;0.00;0.00;;;17.50;99.90;;;;;;5020615;28;20466;-90
2022/09/23 10:33:49;;;;;;;0.00;0.00;;;17.50;99.90;;;;;;5027854;28;20493;-89
2022/09/23 10:36:18;;;;;;;0.00;0.00;;;17.50;99.90;;;;;;5045950;28;20451;-89
2022/09/23 10:38:50;;;;;;;0.00;0.00;;;17.60;99.90;;;;;;5047727;28;20541;-90
2022/09/23 10:47:29;;;;;;;0.00;0.00;;;17.80;99.90;;;;;;5041548;28;20525;-88
2022/09/23 10:50:16;;;;;;;0.00;0.00;;;17.90;99.90;;;;;;5026780;28;20525;-89
2022/09/23 10:52:54;;;;;;;0.00;0.00;;;17.90;99.90;;;;;;5027157;28;20478;-89
2022/09/23 10:55:36;;;;;;;0.00;0.00;;;17.90;99.90;;;;;;5027927;28;20424;-89
2022/09/23 10:58:28;;;;;;;0.00;0.00;;;18.10;99.90;;;;;;5025175;28;20950;-91
2022/09/23 11:01:08;;;;;;;0.00;0.00;;;18.20;99.90;;;;;;5026745;28;20908;-88
2022/09/23 11:04:03;;;;;;;0.00;0.00;;;18.30;99.90;;;;;;5031219;28;20459;-90
2022/09/23 11:06:45;;;;;;;0.00;0.00;;;18.50;99.90;;;;;;5049751;28;20512;-91
2022/09/23 11:09:25;;;;;;;0.00;0.00;;;18.60;99.90;;;;;;5026366;28;20479;-92
2022/09/23 11:12:10;;;;;;;0.00;0.00;;;18.60;99.90;;;;;;5032731;28;20504;-91
2022/09/23 11:14:51;;;;;;;0.00;0.00;;;18.80;99.90;;;;;;5027600;28;20456;-89
2022/09/23 11:17:44;;;;;;;0.00;0.00;;;18.90;99.90;;;;;;5026506;28;20453;-88
2022/09/23 11:20:26;;;;;;;0.00;0.00;;;19.10;99.90;;;;;;5023417;28;20509;-91
2022/09/23 11:23:32;;;;;;;0.00;0.00;;;19.20;99.90;;;;;;5038736;28;20445;-91
2022/09/23 11:26:10;;;;;;;0.00;0.00;;;19.20;99.90;;;;;;5026179;28;20524;-90
2022/09/23 11:29:03;;;;;;;0.00;0.00;;;19.30;99.90;;;;;;5053558;28;20433;-90
2022/09/23 11:31:38;;;;;;;0.00;0.00;;;19.40;99.90;;;;;;5049193;28;20465;-91
2022/09/23 11:34:38;;;;;;;0.00;0.00;;;19.50;99.90;;;;;;5054902;28;20492;-91
2022/09/23 11:37:12;;;;;;;0.00;0.00;;;19.50;99.90;;;;;;5056312;28;20421;-91
2022/09/23 11:39:46;;;;;;;0.00;0.00;;;19.50;99.90;;;;;;5036047;28;20477;-90
2022/09/23 11:42:21;;;;;;;0.00;0.00;;;19.50;99.90;;;;;;5037382;28;20436;-89
2022/09/23 11:44:57;;;;;;;0.00;0.00;;;19.40;99.90;;;;;;5048850;28;20445;-91
2022/09/23 11:47:29;;;;;;;0.00;0.00;;;19.40;99.90;;;;;;5050453;28;20449;-87
2022/09/23 11:50:02;;;;;;;0.00;0.00;;;19.40;99.90;;;;;;5055244;28;20453;-89
2022/09/23 11:52:34;;;;;;;0.00;0.00;;;19.50;99.90;;;;;;5055447;28;20477;-89
2022/09/23 11:55:11;;;;;;;0.00;0.00;;;19.50;99.90;;;;;;5054388;28;20500;-89
2022/09/23 11:57:53;;;;;;;0.00;0.00;;;19.50;99.90;;;;;;5054795;28;20484;-88
2022/09/23 12:00:27;;;;;;;0.00;0.00;;;19.30;99.90;;;;;;5051231;28;20465;-89
2022/09/23 12:03:04;;;;;;;0.00;0.00;;;19.30;99.90;;;;;;5049146;28;20438;-90
2022/09/23 12:05:39;;;;;;;0.00;0.00;;;19.40;99.90;;;;;;5045178;28;20473;-89
2022/09/23 12:08:18;;;;;;;0.00;0.00;;;19.40;99.90;;;;;;5042935;28;20428;-90
2022/09/23 12:10:57;;;;;;;0.00;0.00;;;19.40;99.90;;;;;;5045084;28;20477;-91
2022/09/23 12:13:36;;;;;;;0.00;0.00;;;19.40;99.90;;;;;;5047110;28;20483;-89
2022/09/23 12:16:36;;;;;;;0.00;0.00;;;19.40;99.90;;;;;;5058069;28;20429;-90
2022/09/23 12:19:17;;;;;;;0.00;0.00;;;19.40;99.90;;;;;;5052250;28;20495;-89
2022/09/23 12:21:59;;;;;;;0.00;0.00;;;19.40;99.90;;;;;;5047538;28;20484;-88
2022/09/23 12:24:50;;;;;;;0.00;0.00;;;19.30;99.90;;;;;;5045177;28;20475;-89
2022/09/23 12:27:26;;;;;;;0.00;0.00;;;19.30;99.90;;;;;;5045205;28;20821;-86
2022/09/23 12:29:59;;;;;;;0.00;0.00;;;19.20;99.90;;;;;;5043826;28;20454;-86
2022/09/23 12:32:29;;;;;;;0.00;0.00;;;19.20;99.90;;;;;;5042711;28;20487;-87
2022/09/23 12:34:59;;;;;;;0.00;0.00;;;19.20;99.90;;;;;;5041599;28;20944;-88
2022/09/23 12:37:31;;;;;;;0.00;0.00;;;19.20;99.90;;;;;;5044243;28;20954;-90
2022/09/23 12:40:05;;;;;;;0.00;0.00;;;19.20;99.90;;;;;;5043882;28;20456;-88
2022/09/23 12:42:33;;;;;;;0.00;0.00;;;19.30;99.90;;;;;;5042789;28;20449;-87
2022/09/23 12:45:33;;;;;;;0.00;0.00;;;19.30;99.90;;;;;;5042917;28;20454;-89
2022/09/23 12:48:04;;;;;;;0.00;0.00;;;19.30;99.90;;;;;;5042668;28;20474;-88
2022/09/23 12:51:12;;;;;;;0.00;0.00;;;19.30;99.90;;;;;;5042019;28;20595;-88
2022/09/23 12:54:13;;;;;;;0.00;0.00;;;19.30;99.90;;;;;;5042484;28;20959;-89
2022/09/23 12:57:00;;;;;;;0.00;0.00;;;19.40;99.90;;;;;;5041928;28;20518;-89
2022/09/23 12:59:31;;;;;;;0.00;0.00;;;19.50;99.90;;;;;;5042226;28;20453;-89
2022/09/23 13:02:31;;;;;;;0.00;0.00;;;19.60;99.90;;;;;;5044474;28;20437;-88
2022/09/23 13:08:02;;;;;;;0.00;0.00;;;19.50;99.90;;;;;;5042976;28;20442;-87
2022/09/23 13:10:33;;;;;;;0.00;0.00;;;19.40;99.90;;;;;;5043624;28;20468;-89
2022/09/23 13:13:02;;;;;;;0.00;0.00;;;19.50;99.90;;;;;;5044518;28;20560;-89
2022/09/23 13:15:33;;;;;;;0.00;0.00;;;19.50;99.90;;;;;;5042902;28;20547;-89
2022/09/23 13:18:25;;;;;;;0.00;0.00;;;19.60;99.90;;;;;;5054006;28;20414;-86
2022/09/23 13:20:55;;;;;;;0.00;0.00;;;19.60;99.90;;;;;;5052666;28;20952;-89
2022/09/23 13:23:26;;;;;;;0.00;0.00;;;19.60;99.90;;;;;;5045131;28;20492;-89
2022/09/23 13:25:56;;;;;;;0.00;0.00;;;19.60;99.90;;;;;;5045710;28;20418;-90
2022/09/23 13:28:32;;;;;;;0.00;0.00;;;19.50;99.90;;;;;;5044615;28;20978;-89
2022/09/23 13:31:05;;;;;;;0.00;0.00;;;19.50;99.90;;;;;;5043091;28;20484;-92
2022/09/23 13:33:43;;;;;;;0.00;0.00;;;19.50;99.90;;;;;;5043125;28;20481;-88
2022/09/23 13:36:19;;;;;;;0.00;0.00;;;19.60;99.90;;;;;;5044391;28;20457;-89